createdAt,value
2019-04-10T00:00:48.228Z,29.33
2019-04-10T00:03:27.906Z,29.73
2019-04-10T00:05:50.051Z,28.67
2019-04-10T00:08:19.922Z,28.63
2019-04-10T00:10:49.742Z,27.53
2019-04-10T00:13:20.561Z,28.87
2019-04-10T00:15:50.789Z,30.17
2019-04-10T00:18:22.048Z,29.63
2019-04-10T00:20:53.117Z,29.47
2019-04-10T00:23:23.311Z,29.33
2019-04-10T00:25:53.090Z,29.57
2019-04-10T00:28:23.392Z,29.17
2019-04-10T00:30:53.636Z,28.03
2019-04-10T00:33:23.470Z,29.87
2019-04-10T00:35:54.007Z,29.03
2019-04-10T00:38:24.165Z,30.40
2019-04-10T00:40:53.871Z,29.70
2019-04-10T00:43:24.609Z,29.43
2019-04-10T00:45:54.411Z,29.40
2019-04-10T00:48:24.209Z,30.27
2019-04-10T00:50:54.911Z,29.60
2019-04-10T00:53:25.311Z,29.63
2019-04-10T00:55:55.154Z,30.47
2019-04-10T00:58:25.871Z,29.20
2019-04-10T01:00:55.775Z,29.73
2019-04-10T01:03:44.158Z,28.33
2019-04-10T01:06:15.861Z,29.03
2019-04-10T01:08:45.939Z,30.07
2019-04-10T01:11:16.995Z,29.90
2019-04-10T01:13:47.465Z,30.13
2019-04-10T01:16:17.915Z,28.93
2019-04-10T01:18:47.894Z,29.77
2019-04-10T01:21:18.014Z,29.63
2019-04-10T01:23:49.029Z,31.10
2019-04-10T01:26:19.178Z,30.37
2019-04-10T01:28:49.553Z,31.20
2019-04-10T01:31:20.026Z,29.87
2019-04-10T01:33:50.247Z,30.87
2019-04-10T01:36:20.731Z,30.47
2019-04-10T01:38:51.748Z,30.87
2019-04-10T01:41:21.680Z,29.53
2019-04-10T01:43:51.722Z,30.37
2019-04-10T01:46:22.312Z,30.97
2019-04-10T01:48:53.354Z,30.03
2019-04-10T01:51:23.454Z,31.17
2019-04-10T01:53:54.479Z,32.47
2019-04-10T01:56:29.463Z,33.27
2019-04-10T01:58:55.956Z,32.80
2019-04-10T02:01:30.597Z,31.07
2019-04-10T02:04:00.653Z,30.70
2019-04-10T02:06:31.512Z,32.20
2019-04-10T02:09:02.543Z,30.70
2019-04-10T02:11:32.759Z,32.30
2019-04-10T02:14:03.586Z,31.93
2019-04-10T02:16:34.670Z,31.63
2019-04-10T02:19:05.929Z,30.90
2019-04-10T02:21:36.057Z,31.83
2019-04-10T02:24:05.753Z,32.33
2019-04-10T02:26:35.992Z,33.67
2019-04-10T02:29:07.083Z,33.30
2019-04-10T02:31:38.890Z,31.97
2019-04-10T02:34:09.455Z,31.87
2019-04-10T02:36:42.412Z,33.07
2019-04-10T02:39:24.398Z,31.77
2019-04-10T02:41:44.003Z,31.17
2019-04-10T02:44:16.221Z,31.30
2019-04-10T02:46:47.351Z,31.17
2019-04-10T02:49:18.466Z,32.67
2019-04-10T02:51:49.855Z,29.57
2019-04-10T02:54:21.297Z,30.87
2019-04-10T02:56:52.680Z,31.97
2019-04-10T02:59:23.365Z,30.63
2019-04-10T03:01:53.700Z,31.80
2019-04-10T03:04:24.426Z,32.97
2019-04-10T03:06:55.486Z,31.23
2019-04-10T03:09:36.955Z,31.87
2019-04-10T03:11:57.452Z,31.17
2019-04-10T03:14:28.461Z,30.47
2019-04-10T03:16:59.699Z,30.90
2019-04-10T03:19:29.783Z,31.37
2019-04-10T03:21:59.726Z,30.03
2019-04-10T03:24:29.562Z,32.53
2019-04-10T03:26:59.467Z,30.70
2019-04-10T03:29:29.614Z,30.43
2019-04-10T03:32:19.353Z,31.03
2019-04-10T03:34:53.206Z,28.60
2019-04-10T03:37:22.999Z,28.53
2019-04-10T03:39:53.216Z,31.20
2019-04-10T03:42:23.358Z,30.40
2019-04-10T03:44:53.190Z,31.20
2019-04-10T03:47:23.030Z,32.00
2019-04-10T03:49:53.994Z,31.13
2019-04-10T03:52:25.258Z,30.43
2019-04-10T03:54:56.512Z,31.07
2019-04-10T03:57:26.798Z,30.80
2019-04-10T03:59:56.746Z,30.00
2019-04-10T04:02:27.422Z,31.87
2019-04-10T04:04:58.847Z,29.60
2019-04-10T04:07:28.733Z,31.40
2019-04-10T04:09:58.559Z,31.50
2019-04-10T04:12:28.787Z,31.27
2019-04-10T04:14:59.190Z,30.50
2019-04-10T04:17:30.364Z,30.83
2019-04-10T04:20:00.395Z,30.60
2019-04-10T04:22:30.595Z,32.47
2019-04-10T04:25:00.485Z,31.63
2019-04-10T04:27:30.354Z,32.00
2019-04-10T04:30:00.289Z,31.30
2019-04-10T04:32:31.397Z,32.43
2019-04-10T04:35:02.389Z,31.07
2019-04-10T04:37:33.582Z,31.17
2019-04-10T04:40:03.833Z,32.13
2019-04-10T04:42:33.711Z,32.17
2019-04-10T04:45:03.694Z,30.80
2019-04-10T04:47:33.554Z,31.00
2019-04-10T04:50:03.645Z,32.60
2019-04-10T04:52:33.634Z,31.73
2019-04-10T04:55:03.958Z,32.03
2019-04-10T04:57:35.573Z,32.87
2019-04-10T05:00:07.466Z,30.70
2019-04-10T05:02:37.907Z,32.50
2019-04-10T05:05:08.774Z,32.00
2019-04-10T05:07:39.705Z,31.53
2019-04-10T05:10:11.101Z,31.63
2019-04-10T05:12:42.431Z,33.27
2019-04-10T05:15:13.202Z,32.53
2019-04-10T05:17:43.037Z,32.17
2019-04-10T05:20:12.971Z,31.70
2019-04-10T05:22:43.645Z,31.83
2019-04-10T05:25:13.834Z,30.73
2019-04-10T05:27:43.851Z,30.90
2019-04-10T05:30:14.873Z,31.00
2019-04-10T05:32:44.917Z,33.33
2019-04-10T05:35:15.559Z,32.40
2019-04-10T05:37:45.728Z,31.87
2019-04-10T05:40:15.644Z,30.77
2019-04-10T05:42:45.507Z,29.67
2019-04-10T05:45:15.427Z,31.80
2019-04-10T05:47:46.451Z,30.83
2019-04-10T05:50:17.723Z,30.73
2019-04-10T05:52:47.539Z,30.30
2019-04-10T05:55:17.331Z,31.37
2019-04-10T05:57:47.109Z,30.83
2019-04-10T06:00:18.874Z,29.67
2019-04-10T06:02:50.182Z,29.57
2019-04-10T06:05:20.327Z,31.27
2019-04-10T06:07:50.251Z,30.50
2019-04-10T06:10:20.089Z,32.10
2019-04-10T06:12:50.765Z,31.23
2019-04-10T06:15:21.100Z,29.53
2019-04-10T06:17:51.100Z,29.50
2019-04-10T06:20:21.001Z,27.60
2019-04-10T06:22:50.766Z,31.70
2019-04-10T06:25:23.549Z,30.00
2019-04-10T06:27:52.696Z,30.87
2019-04-10T06:30:23.793Z,31.17
2019-04-10T06:32:53.975Z,30.67
2019-04-10T06:35:24.151Z,32.30
2019-04-10T06:37:54.715Z,29.43
2019-04-10T06:40:27.385Z,29.67
2019-04-10T06:42:58.301Z,30.30
2019-04-10T06:45:28.499Z,32.27
2019-04-10T06:47:58.513Z,31.37
2019-04-10T06:50:30.093Z,31.53
2019-04-10T06:53:00.381Z,33.30
2019-04-10T06:55:30.307Z,32.40
2019-04-10T06:58:00.865Z,32.60
2019-04-10T07:00:30.929Z,32.47
2019-04-10T07:03:01.416Z,31.87
2019-04-10T07:05:40.786Z,33.07
2019-04-10T07:08:12.186Z,33.50
2019-04-10T07:10:48.189Z,35.70
2019-04-10T07:13:10.355Z,34.33
2019-04-10T07:15:42.879Z,35.60
2019-04-10T07:18:14.247Z,33.57
2019-04-10T07:20:44.095Z,32.43
2019-04-10T07:23:18.277Z,31.03
2019-04-10T07:25:47.248Z,32.43
2019-04-10T07:28:17.470Z,31.77
2019-04-10T07:30:47.817Z,30.10
2019-04-10T07:33:19.654Z,31.87
2019-04-10T07:35:49.971Z,31.57
2019-04-10T07:38:21.341Z,31.93
2019-04-10T07:40:51.636Z,31.90
2019-04-10T07:43:24.505Z,31.13
2019-04-10T07:45:56.588Z,31.20
2019-04-10T07:48:25.118Z,31.23
2019-04-10T07:50:55.789Z,30.47
2019-04-10T07:53:26.717Z,29.80
2019-04-10T07:56:05.357Z,30.90
2019-04-10T07:58:29.073Z,31.20
2019-04-10T08:00:59.086Z,30.27
2019-04-10T08:03:28.975Z,31.20
2019-04-10T08:05:58.838Z,29.87
2019-04-10T08:08:29.815Z,31.03
2019-04-10T08:10:59.886Z,29.80
2019-04-10T08:13:30.814Z,32.00
2019-04-10T08:16:01.121Z,31.10
2019-04-10T08:18:31.715Z,30.03
2019-04-10T08:21:02.821Z,31.07
2019-04-10T08:23:33.768Z,30.67
2019-04-10T08:26:03.900Z,30.37
2019-04-10T08:28:34.865Z,30.90
2019-04-10T08:31:04.878Z,30.77
2019-04-10T08:33:35.227Z,31.30
2019-04-10T08:36:05.329Z,29.23
2019-04-10T08:38:35.327Z,30.43
2019-04-10T08:41:05.215Z,31.83
2019-04-10T08:43:35.167Z,31.70
2019-04-10T08:46:05.323Z,30.67
2019-04-10T08:48:35.213Z,32.47
2019-04-10T08:51:05.111Z,32.50
2019-04-10T08:53:34.854Z,30.67
2019-04-10T08:56:06.546Z,29.37
2019-04-10T08:58:36.710Z,32.27
2019-04-10T09:01:07.185Z,30.63
2019-04-10T09:03:37.187Z,30.93
2019-04-10T09:06:07.267Z,31.37
2019-04-10T09:08:37.268Z,33.03
2019-04-10T09:11:07.193Z,30.23
2019-04-10T09:13:37.130Z,30.60
2019-04-10T09:16:07.418Z,31.57
2019-04-10T09:18:37.355Z,32.20
2019-04-10T09:21:07.342Z,31.67
2019-04-10T09:23:45.396Z,31.23
2019-04-10T09:26:08.633Z,31.23
2019-04-10T09:28:38.505Z,30.67
2019-04-10T09:31:09.328Z,30.63
2019-04-10T09:33:39.146Z,30.20
2019-04-10T09:36:09.067Z,32.10
2019-04-10T09:38:39.075Z,30.70
2019-04-10T09:41:09.866Z,31.93
2019-04-10T09:43:40.093Z,32.13
2019-04-10T09:46:11.207Z,31.27
2019-04-10T09:48:42.073Z,31.10
2019-04-10T09:51:15.023Z,31.77
2019-04-10T09:53:43.845Z,30.53
2019-04-10T09:56:13.692Z,30.90
2019-04-10T09:58:44.711Z,30.20
2019-04-10T10:01:16.345Z,33.57
2019-04-10T10:03:46.565Z,32.53
2019-04-10T10:06:24.357Z,32.93
2019-04-10T10:08:48.031Z,33.10
2019-04-10T10:11:18.152Z,33.23
2019-04-10T10:13:48.250Z,32.53
2019-04-10T10:16:18.942Z,32.93
2019-04-10T10:18:49.855Z,33.53
2019-04-10T10:21:20.637Z,33.43
2019-04-10T10:23:50.585Z,32.67
2019-04-10T10:26:20.691Z,35.77
2019-04-10T10:28:50.638Z,34.60
2019-04-10T10:31:20.439Z,34.30
2019-04-10T10:33:50.261Z,35.27
2019-04-10T10:36:20.187Z,39.40
2019-04-10T10:39:02.108Z,38.43
2019-04-10T10:41:22.251Z,38.60
2019-04-10T10:43:52.994Z,36.50
2019-04-10T10:46:23.154Z,38.33
2019-04-10T10:48:53.824Z,39.00
2019-04-10T10:51:23.910Z,36.37
2019-04-10T10:53:54.682Z,37.10
2019-04-10T10:56:24.699Z,37.30
2019-04-10T10:58:57.439Z,36.47
2019-04-10T11:01:26.106Z,36.20
2019-04-10T11:03:56.359Z,33.10
2019-04-10T11:06:28.849Z,35.03
2019-04-10T11:08:59.391Z,35.60
2019-04-10T11:11:30.781Z,35.47
2019-04-10T11:14:01.255Z,35.57
2019-04-10T11:16:31.348Z,35.20
2019-04-10T11:19:02.411Z,36.37
2019-04-10T11:21:32.723Z,35.23
2019-04-10T11:24:03.059Z,35.35
2019-04-10T11:26:33.527Z,34.33
2019-04-10T11:29:03.748Z,34.57
2019-04-10T11:31:35.377Z,34.83
2019-04-10T11:34:07.594Z,33.90
2019-04-10T11:36:36.908Z,33.50
2019-04-10T11:39:16.752Z,34.10
2019-04-10T11:41:41.356Z,33.73
2019-04-10T11:44:13.374Z,32.93
2019-04-10T11:46:43.920Z,31.35
2019-04-10T11:49:15.451Z,30.68
2019-04-10T11:51:46.910Z,31.75
2019-04-10T11:54:18.030Z,32.90
2019-04-10T11:56:49.196Z,34.85
2019-04-10T11:59:23.037Z,32.55
2019-04-10T12:01:56.134Z,31.27
2019-04-10T12:04:23.353Z,33.83
2019-04-10T12:06:55.416Z,33.23
2019-04-10T12:10:18.530Z,32.05
2019-04-10T12:11:57.251Z,34.23
2019-04-10T12:14:27.872Z,34.73
2019-04-10T12:16:58.138Z,33.45
2019-04-10T12:19:29.058Z,34.83
2019-04-10T12:21:59.143Z,33.38
2019-04-10T12:24:29.876Z,33.53
2019-04-10T12:27:00.432Z,32.10
2019-04-10T12:29:30.856Z,34.40
2019-04-10T12:32:00.889Z,35.97
2019-04-10T12:34:32.030Z,33.63
2019-04-10T12:37:02.877Z,34.58
2019-04-10T12:39:32.946Z,33.65
2019-04-10T12:42:03.799Z,33.35
2019-04-10T12:44:33.808Z,35.17
2019-04-10T12:47:04.317Z,31.20
2019-04-10T12:49:34.045Z,33.33
2019-04-10T12:52:03.741Z,32.35
2019-04-10T12:54:33.566Z,31.68
2019-04-10T12:57:04.742Z,32.53
2019-04-10T12:59:35.326Z,31.35
2019-04-10T13:02:05.315Z,32.55
2019-04-10T13:04:35.102Z,33.45
2019-04-10T13:07:05.390Z,32.10
2019-04-10T13:09:35.915Z,32.70
2019-04-10T13:12:06.945Z,30.27
2019-04-10T13:14:37.133Z,30.55
2019-04-10T13:17:06.886Z,31.27
2019-04-10T13:19:37.487Z,33.45
2019-04-10T13:22:07.603Z,32.33
2019-04-10T13:24:37.570Z,30.77
2019-04-10T13:27:07.442Z,32.73
2019-04-10T13:29:38.414Z,33.85
2019-04-10T13:32:09.717Z,31.07
2019-04-10T13:34:39.708Z,30.50
2019-04-10T13:37:10.229Z,33.05
2019-04-10T13:39:41.151Z,33.80
2019-04-10T13:42:12.672Z,32.28
2019-04-10T13:44:42.615Z,33.18
2019-04-10T13:47:13.299Z,31.23
2019-04-10T13:49:44.225Z,32.35
2019-04-10T13:52:14.455Z,33.03
2019-04-10T13:54:45.287Z,33.17
2019-04-10T13:57:15.326Z,34.13
2019-04-10T13:59:45.239Z,33.97
2019-04-10T14:02:21.967Z,34.75
2019-04-10T14:04:51.984Z,32.98
2019-04-10T14:07:22.170Z,35.03
2019-04-10T14:09:52.476Z,33.20
2019-04-10T14:12:22.955Z,34.53
2019-04-10T14:14:53.096Z,35.27
2019-04-10T14:17:23.751Z,35.00
2019-04-10T14:19:54.138Z,34.20
2019-04-10T14:22:24.224Z,34.78
2019-04-10T14:24:54.079Z,33.98
2019-04-10T14:27:25.968Z,34.07
2019-04-10T14:29:56.681Z,33.50
2019-04-10T14:32:45.243Z,36.57
2019-04-10T14:35:15.044Z,35.27
2019-04-10T14:37:45.438Z,34.67
2019-04-10T14:40:16.067Z,34.73
2019-04-10T14:42:45.916Z,35.27
2019-04-10T14:45:15.853Z,36.57
2019-04-10T14:47:45.745Z,35.33
2019-04-10T14:50:15.746Z,33.70
2019-04-10T14:52:45.636Z,33.23
2019-04-10T14:55:16.494Z,34.13
2019-04-10T14:57:47.408Z,35.17
2019-04-10T15:00:31.223Z,33.63
2019-04-10T15:03:02.140Z,34.83
2019-04-10T15:05:33.208Z,34.20
2019-04-10T15:08:03.688Z,32.73
2019-04-10T15:10:33.523Z,32.60
2019-04-10T15:13:11.279Z,35.07
2019-04-10T15:15:35.120Z,33.47
2019-04-10T15:18:04.927Z,34.73
2019-04-10T15:20:35.601Z,33.10
2019-04-10T15:23:05.883Z,33.87
2019-04-10T15:25:35.758Z,33.57
2019-04-10T15:28:08.477Z,34.27
2019-04-10T15:30:39.010Z,33.83
2019-04-10T15:33:10.093Z,33.77
2019-04-10T15:35:39.995Z,33.17
2019-04-10T15:38:09.806Z,32.30
2019-04-10T15:40:39.591Z,32.93
2019-04-10T15:43:10.632Z,33.37
2019-04-10T15:45:41.016Z,34.03
2019-04-10T15:48:10.900Z,33.63
2019-04-10T15:50:41.453Z,35.77
2019-04-10T15:53:11.760Z,35.27
2019-04-10T15:55:41.548Z,36.13
2019-04-10T15:58:11.332Z,36.33
2019-04-10T16:00:41.378Z,36.90
2019-04-10T16:03:11.461Z,33.57
2019-04-10T16:05:41.874Z,34.90
2019-04-10T16:08:12.770Z,35.00
2019-04-10T16:11:07.649Z,35.37
2019-04-10T16:13:40.867Z,35.17
2019-04-10T16:16:29.925Z,36.93
2019-04-10T16:19:12.171Z,35.20
2019-04-10T16:21:42.087Z,34.97
2019-04-10T16:24:12.305Z,35.57
2019-04-10T16:26:43.279Z,36.00
2019-04-10T16:29:13.199Z,36.70
2019-04-10T16:31:44.019Z,33.37
2019-04-10T16:34:14.226Z,34.37
2019-04-10T16:36:44.029Z,36.23
2019-04-10T16:39:15.847Z,33.20
2019-04-10T16:41:46.218Z,35.33
2019-04-10T16:44:17.107Z,34.73
2019-04-10T16:46:49.448Z,35.90
2019-04-10T16:49:18.802Z,33.40
2019-04-10T16:51:48.944Z,34.20
2019-04-10T16:54:20.152Z,35.00
2019-04-10T16:56:50.443Z,34.43
2019-04-10T16:59:21.320Z,35.17
2019-04-10T17:01:51.423Z,35.83
2019-04-10T17:04:21.231Z,34.60
2019-04-10T17:06:51.069Z,34.60
2019-04-10T17:09:23.108Z,34.47
2019-04-10T17:11:53.745Z,34.20
2019-04-10T17:14:23.964Z,34.73
2019-04-10T17:16:53.939Z,37.53
2019-04-10T17:19:23.797Z,36.90
2019-04-10T17:21:54.887Z,36.50
2019-04-10T17:24:25.062Z,35.87
2019-04-10T17:26:55.207Z,36.97
2019-04-10T17:29:25.159Z,36.77
2019-04-10T17:31:55.151Z,36.10
2019-04-10T17:34:25.018Z,35.17
2019-04-10T17:36:54.887Z,37.10
2019-04-10T17:39:25.162Z,36.73
2019-04-10T17:41:55.787Z,35.40
2019-04-10T17:44:25.902Z,36.63
2019-04-10T17:46:57.997Z,36.93
2019-04-10T17:49:27.820Z,36.20
2019-04-10T17:51:59.883Z,37.97
2019-04-10T17:54:29.853Z,35.97
2019-04-10T17:57:05.881Z,36.00
2019-04-10T17:59:35.844Z,36.03
2019-04-10T18:02:11.810Z,37.73
2019-04-10T18:04:44.732Z,35.83
2019-04-10T18:07:16.286Z,35.37
2019-04-10T18:09:46.439Z,34.33
2019-04-10T18:12:19.588Z,36.17
2019-04-10T18:14:51.404Z,35.83
2019-04-10T18:17:22.689Z,37.03
2019-04-10T18:19:53.005Z,35.53
2019-04-10T18:22:22.780Z,35.27
2019-04-10T18:24:53.670Z,35.47
2019-04-10T18:27:24.469Z,35.23
2019-04-10T18:29:55.203Z,35.20
2019-04-10T18:32:27.562Z,34.13
2019-04-10T18:34:59.030Z,35.07
2019-04-10T18:37:33.124Z,34.43
2019-04-10T18:40:05.296Z,34.67
2019-04-10T18:42:36.927Z,34.40
2019-04-10T18:45:09.171Z,35.57
2019-04-10T18:47:40.295Z,32.83
2019-04-10T18:50:12.042Z,32.70
2019-04-10T18:52:42.124Z,33.77
2019-04-10T18:55:12.214Z,33.27
2019-04-10T18:57:43.110Z,33.20
2019-04-10T19:00:32.353Z,32.50
2019-04-10T19:03:45.420Z,32.83
2019-04-10T19:06:10.038Z,31.87
2019-04-10T19:08:40.495Z,28.70
2019-04-10T19:11:19.158Z,28.60
2019-04-10T19:13:42.458Z,27.77
2019-04-10T19:16:12.969Z,27.30
2019-04-10T19:18:43.803Z,25.77
2019-04-10T19:21:13.841Z,26.27
2019-04-10T19:23:43.667Z,27.17
2019-04-10T19:26:15.498Z,25.90
2019-04-10T19:28:46.577Z,26.97
2019-04-10T19:31:20.116Z,25.53
2019-04-10T19:33:49.108Z,25.83
2019-04-10T19:36:19.470Z,25.57
2019-04-10T19:38:49.708Z,26.30
2019-04-10T19:41:25.166Z,26.23
2019-04-10T19:43:54.839Z,25.43
2019-04-10T19:46:25.907Z,26.77
2019-04-10T19:48:57.559Z,27.33
2019-04-10T19:51:27.965Z,23.97
2019-04-10T19:54:00.609Z,24.60
2019-04-10T19:56:29.314Z,26.03
2019-04-10T19:58:59.162Z,24.37
2019-04-10T20:01:31.241Z,25.47
2019-04-10T20:04:01.917Z,24.47
2019-04-10T20:06:36.264Z,25.33
2019-04-10T20:09:08.898Z,24.30
2019-04-10T20:11:46.651Z,24.83
2019-04-10T20:14:16.780Z,24.70
2019-04-10T20:16:49.375Z,23.70
2019-04-10T20:19:18.516Z,23.90
2019-04-10T20:21:53.111Z,24.83
2019-04-10T20:24:22.962Z,23.13
2019-04-10T20:26:53.844Z,23.00
2019-04-10T20:29:23.731Z,22.67
2019-04-10T20:32:03.886Z,22.73
2019-04-10T20:34:36.525Z,22.97
2019-04-10T20:37:11.325Z,23.73
2019-04-10T20:39:41.592Z,22.93
2019-04-10T20:42:14.098Z,22.00
2019-04-10T20:44:44.936Z,22.77
2019-04-10T20:47:15.829Z,21.83
2019-04-10T20:49:48.679Z,21.53
2019-04-10T20:52:18.546Z,21.30
2019-04-10T20:54:48.951Z,21.77
2019-04-10T20:57:21.468Z,22.07
2019-04-10T20:59:53.263Z,22.27
2019-04-10T21:02:24.326Z,22.30
2019-04-10T21:05:01.471Z,22.10
2019-04-10T21:07:27.600Z,23.10
2019-04-10T21:09:58.743Z,21.00
2019-04-10T21:12:30.040Z,22.00
2019-04-10T21:15:01.264Z,23.20
2019-04-10T21:17:32.749Z,22.20
2019-04-10T21:20:05.666Z,22.57
2019-04-10T21:22:38.617Z,22.07
2019-04-10T21:25:10.282Z,19.77
2019-04-10T21:27:40.173Z,21.13
2019-04-10T21:30:28.663Z,21.33
2019-04-10T21:33:12.067Z,20.07
2019-04-10T21:35:44.410Z,19.70
2019-04-10T21:38:17.266Z,21.10
2019-04-10T21:40:49.855Z,22.80
2019-04-10T21:43:21.365Z,20.87
2019-04-10T21:45:55.296Z,21.80
2019-04-10T21:48:28.037Z,20.73
2019-04-10T21:51:00.499Z,22.53
2019-04-10T21:53:31.724Z,20.10
2019-04-10T21:56:04.027Z,20.03
2019-04-10T21:58:34.550Z,21.43
2019-04-10T22:01:11.072Z,21.07
2019-04-10T22:03:43.570Z,20.53
2019-04-10T22:06:30.901Z,21.60
2019-04-10T22:09:20.829Z,21.03
2019-04-10T22:11:55.677Z,21.17
2019-04-10T22:14:28.276Z,21.03
2019-04-10T22:16:58.248Z,20.57
2019-04-10T22:19:30.429Z,20.63
2019-04-10T22:22:00.028Z,21.67
2019-04-10T22:24:30.260Z,20.67
2019-04-10T22:27:00.879Z,21.80
2019-04-10T22:29:30.979Z,20.17
2019-04-10T22:32:02.091Z,21.50
2019-04-10T22:34:36.370Z,20.80
2019-04-10T22:37:08.130Z,20.00
2019-04-10T22:39:40.011Z,20.07
2019-04-10T22:42:11.525Z,20.63
2019-04-10T22:44:45.172Z,21.80
2019-04-10T22:47:16.952Z,22.27
2019-04-10T22:49:48.231Z,20.93
2019-04-10T22:52:19.585Z,20.53
2019-04-10T22:54:53.899Z,21.03
2019-04-10T22:57:25.180Z,17.70
2019-04-10T22:59:57.491Z,21.90
2019-04-10T23:02:27.857Z,21.13
2019-04-10T23:05:00.557Z,21.13
2019-04-10T23:07:33.638Z,20.23
2019-04-10T23:10:15.583Z,20.70
2019-04-10T23:12:57.123Z,19.37
2019-04-10T23:15:23.094Z,20.43
2019-04-10T23:17:55.475Z,19.63
2019-04-10T23:20:28.547Z,19.50
2019-04-10T23:23:04.533Z,18.97
2019-04-10T23:25:36.555Z,21.03
2019-04-10T23:28:07.568Z,21.03
2019-04-10T23:30:39.237Z,19.43
2019-04-10T23:33:12.195Z,20.17
2019-04-10T23:35:43.320Z,20.60
2019-04-10T23:38:13.469Z,19.33
2019-04-10T23:40:49.687Z,18.93
2019-04-10T23:43:22.741Z,19.40
2019-04-10T23:45:55.702Z,18.27
2019-04-10T23:48:25.724Z,20.37
2019-04-10T23:50:56.606Z,19.43
2019-04-10T23:53:28.774Z,18.47
2019-04-10T23:56:02.132Z,19.50
2019-04-10T23:58:32.076Z,20.33
